sensor_id;sensor_type;location;lat;lon;timestamp;P1;durP1;ratioP1;P2;durP2;ratioP2
8042;SDS011;4064;48.132;11.366;2023-03-02T00:01:03;30.50;;;20.70;;
8042;SDS011;4064;48.132;11.366;2023-03-02T00:03:34;25.63;;;20.38;;
8042;SDS011;4064;48.132;11.366;2023-03-02T00:06:03;31.77;;;21.35;;
8042;SDS011;4064;48.132;11.366;2023-03-02T00:08:29;32.67;;;20.67;;
8042;SDS011;4064;48.132;11.366;2023-03-02T00:10:56;35.80;;;22.65;;
8042;SDS011;4064;48.132;11.366;2023-03-02T00:13:22;31.02;;;20.45;;
8042;SDS011;4064;48.132;11.366;2023-03-02T00:15:48;30.83;;;21.15;;
8042;SDS011;4064;48.132;11.366;2023-03-02T00:18:14;29.43;;;21.20;;
8042;SDS011;4064;48.132;11.366;2023-03-02T00:20:39;30.33;;;22.17;;
8042;SDS011;4064;48.132;11.366;2023-03-02T00:23:05;30.50;;;20.90;;
8042;SDS011;4064;48.132;11.366;2023-03-02T00:25:31;32.60;;;19.57;;
8042;SDS011;4064;48.132;11.366;2023-03-02T00:27:57;35.10;;;21.20;;
8042;SDS011;4064;48.132;11.366;2023-03-02T00:30:22;32.63;;;22.70;;
8042;SDS011;4064;48.132;11.366;2023-03-02T00:32:48;29.70;;;21.63;;
8042;SDS011;4064;48.132;11.366;2023-03-02T00:35:14;31.27;;;19.67;;
8042;SDS011;4064;48.132;11.366;2023-03-02T00:37:40;34.50;;;20.87;;
8042;SDS011;4064;48.132;11.366;2023-03-02T00:40:06;27.00;;;21.47;;
8042;SDS011;4064;48.132;11.366;2023-03-02T00:42:36;33.95;;;21.90;;
8042;SDS011;4064;48.132;11.366;2023-03-02T00:45:02;35.05;;;20.75;;
8042;SDS011;4064;48.132;11.366;2023-03-02T00:47:31;31.67;;;22.08;;
8042;SDS011;4064;48.132;11.366;2023-03-02T00:49:58;35.03;;;24.08;;
8042;SDS011;4064;48.132;11.366;2023-03-02T00:52:24;33.15;;;23.75;;
8042;SDS011;4064;48.132;11.366;2023-03-02T00:54:50;39.40;;;22.80;;
8042;SDS011;4064;48.132;11.366;2023-03-02T00:57:16;32.50;;;22.57;;
8042;SDS011;4064;48.132;11.366;2023-03-02T00:59:42;34.93;;;24.13;;
8042;SDS011;4064;48.132;11.366;2023-03-02T01:02:08;32.50;;;23.10;;
8042;SDS011;4064;48.132;11.366;2023-03-02T01:04:35;33.50;;;24.23;;
8042;SDS011;4064;48.132;11.366;2023-03-02T01:07:04;31.20;;;21.42;;
8042;SDS011;4064;48.132;11.366;2023-03-02T01:09:39;30.15;;;23.40;;
8042;SDS011;4064;48.132;11.366;2023-03-02T01:12:06;33.60;;;24.05;;
8042;SDS011;4064;48.132;11.366;2023-03-02T01:14:35;35.05;;;22.10;;
8042;SDS011;4064;48.132;11.366;2023-03-02T01:17:02;40.47;;;24.15;;
8042;SDS011;4064;48.132;11.366;2023-03-02T01:19:28;32.95;;;23.05;;
8042;SDS011;4064;48.132;11.366;2023-03-02T01:21:54;36.97;;;22.60;;
8042;SDS011;4064;48.132;11.366;2023-03-02T01:24:20;34.40;;;23.13;;
8042;SDS011;4064;48.132;11.366;2023-03-02T01:26:46;33.87;;;23.03;;
8042;SDS011;4064;48.132;11.366;2023-03-02T01:29:12;33.63;;;22.77;;
8042;SDS011;4064;48.132;11.366;2023-03-02T01:31:37;39.20;;;23.47;;
8042;SDS011;4064;48.132;11.366;2023-03-02T01:34:06;35.90;;;24.40;;
8042;SDS011;4064;48.132;11.366;2023-03-02T01:36:32;33.73;;;23.60;;
8042;SDS011;4064;48.132;11.366;2023-03-02T01:38:58;31.90;;;23.23;;
8042;SDS011;4064;48.132;11.366;2023-03-02T01:41:24;31.87;;;21.57;;
8042;SDS011;4064;48.132;11.366;2023-03-02T01:43:51;32.28;;;24.05;;
8042;SDS011;4064;48.132;11.366;2023-03-02T01:46:26;35.10;;;23.40;;
8042;SDS011;4064;48.132;11.366;2023-03-02T01:51:31;39.70;;;23.98;;
8042;SDS011;4064;48.132;11.366;2023-03-02T01:54:03;35.67;;;24.55;;
8042;SDS011;4064;48.132;11.366;2023-03-02T01:56:34;37.33;;;24.92;;
8042;SDS011;4064;48.132;11.366;2023-03-02T01:59:05;38.22;;;25.65;;
8042;SDS011;4064;48.132;11.366;2023-03-02T02:01:35;33.45;;;26.05;;
8042;SDS011;4064;48.132;11.366;2023-03-02T02:04:03;35.65;;;23.40;;
8042;SDS011;4064;48.132;11.366;2023-03-02T02:09:10;36.25;;;24.17;;
8042;SDS011;4064;48.132;11.366;2023-03-02T02:11:43;34.10;;;25.25;;
8042;SDS011;4064;48.132;11.366;2023-03-02T02:14:10;37.97;;;26.35;;
8042;SDS011;4064;48.132;11.366;2023-03-02T02:16:36;41.92;;;25.55;;
8042;SDS011;4064;48.132;11.366;2023-03-02T02:19:03;38.83;;;25.58;;
8042;SDS011;4064;48.132;11.366;2023-03-02T02:21:49;31.65;;;24.90;;
8042;SDS011;4064;48.132;11.366;2023-03-02T02:24:19;38.37;;;24.63;;
8042;SDS011;4064;48.132;11.366;2023-03-02T02:26:53;39.17;;;23.52;;
8042;SDS011;4064;48.132;11.366;2023-03-02T02:29:25;35.60;;;24.13;;
8042;SDS011;4064;48.132;11.366;2023-03-02T02:31:59;33.92;;;23.10;;
8042;SDS011;4064;48.132;11.366;2023-03-02T02:37:55;34.17;;;24.95;;
8042;SDS011;4064;48.132;11.366;2023-03-02T02:43:13;31.48;;;23.10;;
8042;SDS011;4064;48.132;11.366;2023-03-02T02:45:41;39.72;;;25.02;;
8042;SDS011;4064;48.132;11.366;2023-03-02T02:48:10;37.38;;;24.60;;
8042;SDS011;4064;48.132;11.366;2023-03-02T02:50:40;31.33;;;22.27;;
8042;SDS011;4064;48.132;11.366;2023-03-02T02:53:14;39.05;;;25.33;;
8042;SDS011;4064;48.132;11.366;2023-03-02T02:55:44;37.38;;;23.38;;
8042;SDS011;4064;48.132;11.366;2023-03-02T02:58:19;33.85;;;23.77;;
8042;SDS011;4064;48.132;11.366;2023-03-02T03:00:50;36.30;;;24.17;;
8042;SDS011;4064;48.132;11.366;2023-03-02T03:03:28;33.40;;;26.02;;
8042;SDS011;4064;48.132;11.366;2023-03-02T03:06:00;41.70;;;24.50;;
8042;SDS011;4064;48.132;11.366;2023-03-02T03:11:06;30.30;;;23.70;;
8042;SDS011;4064;48.132;11.366;2023-03-02T03:13:32;34.88;;;23.92;;
8042;SDS011;4064;48.132;11.366;2023-03-02T03:15:59;36.30;;;24.70;;
8042;SDS011;4064;48.132;11.366;2023-03-02T03:18:26;37.08;;;23.83;;
8042;SDS011;4064;48.132;11.366;2023-03-02T03:20:55;33.97;;;24.15;;
8042;SDS011;4064;48.132;11.366;2023-03-02T03:23:21;42.83;;;26.15;;
8042;SDS011;4064;48.132;11.366;2023-03-02T03:25:46;34.83;;;24.70;;
8042;SDS011;4064;48.132;11.366;2023-03-02T03:28:12;35.37;;;23.70;;
8042;SDS011;4064;48.132;11.366;2023-03-02T03:30:38;38.60;;;25.63;;
8042;SDS011;4064;48.132;11.366;2023-03-02T03:33:04;33.60;;;23.07;;
8042;SDS011;4064;48.132;11.366;2023-03-02T03:35:30;36.13;;;24.50;;
8042;SDS011;4064;48.132;11.366;2023-03-02T03:37:55;36.70;;;26.03;;
8042;SDS011;4064;48.132;11.366;2023-03-02T03:40:21;36.73;;;25.03;;
8042;SDS011;4064;48.132;11.366;2023-03-02T03:42:47;35.40;;;23.97;;
8042;SDS011;4064;48.132;11.366;2023-03-02T03:45:13;37.40;;;24.43;;
8042;SDS011;4064;48.132;11.366;2023-03-02T03:47:38;37.53;;;24.30;;
8042;SDS011;4064;48.132;11.366;2023-03-02T03:50:04;33.13;;;23.97;;
8042;SDS011;4064;48.132;11.366;2023-03-02T03:52:30;37.27;;;25.40;;
8042;SDS011;4064;48.132;11.366;2023-03-02T03:54:59;40.90;;;26.17;;
8042;SDS011;4064;48.132;11.366;2023-03-02T03:57:26;32.15;;;24.40;;
8042;SDS011;4064;48.132;11.366;2023-03-02T03:59:53;40.60;;;25.70;;
8042;SDS011;4064;48.132;11.366;2023-03-02T04:02:20;35.88;;;23.77;;
8042;SDS011;4064;48.132;11.366;2023-03-02T04:04:46;35.50;;;25.05;;
8042;SDS011;4064;48.132;11.366;2023-03-02T04:07:12;35.27;;;24.00;;
8042;SDS011;4064;48.132;11.366;2023-03-02T04:09:38;37.80;;;24.88;;
8042;SDS011;4064;48.132;11.366;2023-03-02T04:12:05;34.50;;;22.73;;
8042;SDS011;4064;48.132;11.366;2023-03-02T04:14:32;35.83;;;24.35;;
8042;SDS011;4064;48.132;11.366;2023-03-02T04:16:58;34.15;;;23.30;;
8042;SDS011;4064;48.132;11.366;2023-03-02T04:19:24;36.30;;;24.60;;
8042;SDS011;4064;48.132;11.366;2023-03-02T04:21:51;35.03;;;23.30;;
8042;SDS011;4064;48.132;11.366;2023-03-02T04:24:19;31.48;;;23.50;;
8042;SDS011;4064;48.132;11.366;2023-03-02T04:26:46;35.53;;;22.73;;
8042;SDS011;4064;48.132;11.366;2023-03-02T04:29:13;35.80;;;23.02;;
8042;SDS011;4064;48.132;11.366;2023-03-02T04:31:39;36.15;;;25.52;;
8042;SDS011;4064;48.132;11.366;2023-03-02T04:34:06;34.03;;;24.08;;
8042;SDS011;4064;48.132;11.366;2023-03-02T04:36:34;38.28;;;27.00;;
8042;SDS011;4064;48.132;11.366;2023-03-02T04:39:02;33.83;;;23.80;;
8042;SDS011;4064;48.132;11.366;2023-03-02T04:41:29;33.58;;;23.83;;
8042;SDS011;4064;48.132;11.366;2023-03-02T04:43:54;38.07;;;24.80;;
8042;SDS011;4064;48.132;11.366;2023-03-02T04:46:22;36.63;;;24.95;;
8042;SDS011;4064;48.132;11.366;2023-03-02T04:48:50;35.38;;;25.13;;
8042;SDS011;4064;48.132;11.366;2023-03-02T04:51:21;37.08;;;26.80;;
8042;SDS011;4064;48.132;11.366;2023-03-02T04:53:56;35.55;;;26.33;;
8042;SDS011;4064;48.132;11.366;2023-03-02T04:56:24;36.72;;;24.80;;
8042;SDS011;4064;48.132;11.366;2023-03-02T04:58:51;38.20;;;24.52;;
8042;SDS011;4064;48.132;11.366;2023-03-02T05:01:17;45.35;;;26.17;;
8042;SDS011;4064;48.132;11.366;2023-03-02T05:03:43;29.25;;;21.48;;
8042;SDS011;4064;48.132;11.366;2023-03-02T05:06:10;37.35;;;25.58;;
8042;SDS011;4064;48.132;11.366;2023-03-02T05:08:36;38.20;;;25.23;;
8042;SDS011;4064;48.132;11.366;2023-03-02T05:11:02;33.85;;;23.52;;
8042;SDS011;4064;48.132;11.366;2023-03-02T05:13:28;40.70;;;27.80;;
8042;SDS011;4064;48.132;11.366;2023-03-02T05:15:54;35.50;;;24.03;;
8042;SDS011;4064;48.132;11.366;2023-03-02T05:18:21;40.20;;;25.33;;
8042;SDS011;4064;48.132;11.366;2023-03-02T05:20:48;36.60;;;26.33;;
8042;SDS011;4064;48.132;11.366;2023-03-02T05:23:16;37.15;;;26.67;;
8042;SDS011;4064;48.132;11.366;2023-03-02T05:25:49;34.50;;;25.30;;
8042;SDS011;4064;48.132;11.366;2023-03-02T05:28:16;36.75;;;25.75;;
8042;SDS011;4064;48.132;11.366;2023-03-02T05:30:43;37.10;;;26.17;;
8042;SDS011;4064;48.132;11.366;2023-03-02T05:33:08;31.40;;;22.40;;
8042;SDS011;4064;48.132;11.366;2023-03-02T05:35:34;36.77;;;27.57;;
8042;SDS011;4064;48.132;11.366;2023-03-02T05:38:00;35.05;;;24.52;;
8042;SDS011;4064;48.132;11.366;2023-03-02T05:40:26;37.03;;;23.00;;
8042;SDS011;4064;48.132;11.366;2023-03-02T05:42:52;36.20;;;24.87;;
8042;SDS011;4064;48.132;11.366;2023-03-02T05:45:22;38.57;;;27.63;;
8042;SDS011;4064;48.132;11.366;2023-03-02T05:47:50;39.60;;;25.25;;
8042;SDS011;4064;48.132;11.366;2023-03-02T05:50:16;33.67;;;25.37;;
8042;SDS011;4064;48.132;11.366;2023-03-02T05:52:42;37.22;;;26.02;;
8042;SDS011;4064;48.132;11.366;2023-03-02T05:55:09;36.35;;;24.02;;
8042;SDS011;4064;48.132;11.366;2023-03-02T05:57:36;33.40;;;25.10;;
8042;SDS011;4064;48.132;11.366;2023-03-02T06:00:03;39.63;;;25.40;;
8042;SDS011;4064;48.132;11.366;2023-03-02T06:02:30;32.50;;;23.02;;
8042;SDS011;4064;48.132;11.366;2023-03-02T06:04:56;36.63;;;25.00;;
8042;SDS011;4064;48.132;11.366;2023-03-02T06:07:22;33.17;;;25.10;;
8042;SDS011;4064;48.132;11.366;2023-03-02T06:09:48;32.55;;;23.80;;
8042;SDS011;4064;48.132;11.366;2023-03-02T06:12:15;40.00;;;26.83;;
8042;SDS011;4064;48.132;11.366;2023-03-02T06:14:44;40.72;;;26.75;;
8042;SDS011;4064;48.132;11.366;2023-03-02T06:17:11;38.60;;;25.42;;
8042;SDS011;4064;48.132;11.366;2023-03-02T06:19:36;33.50;;;25.55;;
8042;SDS011;4064;48.132;11.366;2023-03-02T06:22:02;37.53;;;27.20;;
8042;SDS011;4064;48.132;11.366;2023-03-02T06:24:28;41.13;;;25.70;;
8042;SDS011;4064;48.132;11.366;2023-03-02T06:26:54;34.03;;;25.57;;
8042;SDS011;4064;48.132;11.366;2023-03-02T06:29:20;40.40;;;26.57;;
8042;SDS011;4064;48.132;11.366;2023-03-02T06:31:46;40.90;;;26.15;;
8042;SDS011;4064;48.132;11.366;2023-03-02T06:34:12;34.70;;;25.10;;
8042;SDS011;4064;48.132;11.366;2023-03-02T06:36:38;39.92;;;25.80;;
8042;SDS011;4064;48.132;11.366;2023-03-02T06:39:05;36.75;;;26.80;;
8042;SDS011;4064;48.132;11.366;2023-03-02T06:41:32;37.60;;;27.23;;
8042;SDS011;4064;48.132;11.366;2023-03-02T06:43:59;38.30;;;27.60;;
8042;SDS011;4064;48.132;11.366;2023-03-02T06:46:25;38.42;;;25.83;;
8042;SDS011;4064;48.132;11.366;2023-03-02T06:48:50;40.80;;;28.50;;
8042;SDS011;4064;48.132;11.366;2023-03-02T06:51:16;38.80;;;27.47;;
8042;SDS011;4064;48.132;11.366;2023-03-02T06:53:42;35.20;;;24.47;;
8042;SDS011;4064;48.132;11.366;2023-03-02T06:56:08;36.80;;;25.27;;
8042;SDS011;4064;48.132;11.366;2023-03-02T06:58:34;35.75;;;25.95;;
8042;SDS011;4064;48.132;11.366;2023-03-02T07:01:01;36.38;;;25.65;;
8042;SDS011;4064;48.132;11.366;2023-03-02T07:03:27;31.27;;;24.33;;
8042;SDS011;4064;48.132;11.366;2023-03-02T07:05:52;35.33;;;24.83;;
8042;SDS011;4064;48.132;11.366;2023-03-02T07:08:18;32.13;;;23.20;;
8042;SDS011;4064;48.132;11.366;2023-03-02T07:10:44;33.37;;;23.63;;
8042;SDS011;4064;48.132;11.366;2023-03-02T07:13:10;35.50;;;26.23;;
8042;SDS011;4064;48.132;11.366;2023-03-02T07:15:39;34.27;;;25.37;;
8042;SDS011;4064;48.132;11.366;2023-03-02T07:18:05;36.13;;;21.93;;
8042;SDS011;4064;48.132;11.366;2023-03-02T07:20:31;40.27;;;24.90;;
8042;SDS011;4064;48.132;11.366;2023-03-02T07:22:58;36.13;;;23.50;;
8042;SDS011;4064;48.132;11.366;2023-03-02T07:25:24;33.70;;;23.70;;
8042;SDS011;4064;48.132;11.366;2023-03-02T07:27:55;26.67;;;21.13;;
8042;SDS011;4064;48.132;11.366;2023-03-02T07:30:21;28.83;;;21.90;;
8042;SDS011;4064;48.132;11.366;2023-03-02T07:32:47;28.47;;;22.40;;
8042;SDS011;4064;48.132;11.366;2023-03-02T07:35:13;25.60;;;21.97;;
8042;SDS011;4064;48.132;11.366;2023-03-02T07:37:41;29.60;;;22.70;;
8042;SDS011;4064;48.132;11.366;2023-03-02T07:40:07;29.50;;;21.90;;
8042;SDS011;4064;48.132;11.366;2023-03-02T07:42:35;26.67;;;23.40;;
8042;SDS011;4064;48.132;11.366;2023-03-02T07:45:02;33.50;;;22.10;;
8042;SDS011;4064;48.132;11.366;2023-03-02T07:47:29;34.13;;;25.07;;
8042;SDS011;4064;48.132;11.366;2023-03-02T07:49:55;29.50;;;22.23;;
8042;SDS011;4064;48.132;11.366;2023-03-02T07:52:21;36.77;;;23.30;;
8042;SDS011;4064;48.132;11.366;2023-03-02T07:54:47;27.20;;;22.50;;
8042;SDS011;4064;48.132;11.366;2023-03-02T07:57:13;34.83;;;24.97;;
8042;SDS011;4064;48.132;11.366;2023-03-02T07:59:41;28.23;;;23.30;;
8042;SDS011;4064;48.132;11.366;2023-03-02T08:02:08;28.03;;;23.37;;
8042;SDS011;4064;48.132;11.366;2023-03-02T08:04:36;30.57;;;25.17;;
8042;SDS011;4064;48.132;11.366;2023-03-02T08:07:02;29.87;;;24.77;;
8042;SDS011;4064;48.132;11.366;2023-03-02T08:09:28;37.50;;;26.67;;
8042;SDS011;4064;48.132;11.366;2023-03-02T08:11:53;35.77;;;25.40;;
8042;SDS011;4064;48.132;11.366;2023-03-02T08:14:19;33.40;;;24.47;;
8042;SDS011;4064;48.132;11.366;2023-03-02T08:16:45;29.67;;;22.73;;
8042;SDS011;4064;48.132;11.366;2023-03-02T08:19:11;33.80;;;26.33;;
8042;SDS011;4064;48.132;11.366;2023-03-02T08:21:37;30.63;;;23.00;;
8042;SDS011;4064;48.132;11.366;2023-03-02T08:24:03;29.57;;;23.90;;
8042;SDS011;4064;48.132;11.366;2023-03-02T08:26:29;32.43;;;22.93;;
8042;SDS011;4064;48.132;11.366;2023-03-02T08:28:55;28.93;;;25.03;;
8042;SDS011;4064;48.132;11.366;2023-03-02T08:31:21;32.27;;;24.13;;
8042;SDS011;4064;48.132;11.366;2023-03-02T08:33:47;29.03;;;24.00;;
8042;SDS011;4064;48.132;11.366;2023-03-02T08:36:14;27.17;;;22.70;;
8042;SDS011;4064;48.132;11.366;2023-03-02T08:38:42;28.83;;;22.40;;
8042;SDS011;4064;48.132;11.366;2023-03-02T08:41:10;25.77;;;22.60;;
8042;SDS011;4064;48.132;11.366;2023-03-02T08:43:37;32.10;;;25.27;;
8042;SDS011;4064;48.132;11.366;2023-03-02T08:46:03;30.07;;;22.80;;
8042;SDS011;4064;48.132;11.366;2023-03-02T08:48:29;31.03;;;23.90;;
8042;SDS011;4064;48.132;11.366;2023-03-02T08:53:29;26.67;;;23.70;;
8042;SDS011;4064;48.132;11.366;2023-03-02T08:55:56;35.00;;;24.50;;
8042;SDS011;4064;48.132;11.366;2023-03-02T08:58:22;28.53;;;24.50;;
8042;SDS011;4064;48.132;11.366;2023-03-02T09:00:49;27.73;;;22.93;;
8042;SDS011;4064;48.132;11.366;2023-03-02T09:03:15;31.30;;;23.50;;
8042;SDS011;4064;48.132;11.366;2023-03-02T09:05:41;27.57;;;23.93;;
8042;SDS011;4064;48.132;11.366;2023-03-02T09:08:07;26.10;;;23.20;;
8042;SDS011;4064;48.132;11.366;2023-03-02T09:10:34;27.60;;;23.77;;
8042;SDS011;4064;48.132;11.366;2023-03-02T09:13:00;31.97;;;24.80;;
8042;SDS011;4064;48.132;11.366;2023-03-02T09:15:26;28.50;;;23.50;;
8042;SDS011;4064;48.132;11.366;2023-03-02T09:17:52;30.60;;;23.50;;
8042;SDS011;4064;48.132;11.366;2023-03-02T09:20:17;27.00;;;24.20;;
8042;SDS011;4064;48.132;11.366;2023-03-02T09:22:43;30.50;;;23.37;;
8042;SDS011;4064;48.132;11.366;2023-03-02T09:25:13;34.50;;;23.70;;
8042;SDS011;4064;48.132;11.366;2023-03-02T09:27:39;27.83;;;24.83;;
8042;SDS011;4064;48.132;11.366;2023-03-02T09:30:06;28.00;;;24.20;;
8042;SDS011;4064;48.132;11.366;2023-03-02T09:32:33;26.93;;;22.90;;
8042;SDS011;4064;48.132;11.366;2023-03-02T09:34:59;30.10;;;25.00;;
8042;SDS011;4064;48.132;11.366;2023-03-02T09:37:26;26.70;;;22.20;;
8042;SDS011;4064;48.132;11.366;2023-03-02T09:39:52;28.47;;;24.70;;
8042;SDS011;4064;48.132;11.366;2023-03-02T09:51:23;23.00;;;20.50;;
8042;SDS011;4064;48.132;11.366;2023-03-02T09:56:57;23.40;;;20.50;;
8042;SDS011;4064;48.132;11.366;2023-03-02T09:59:28;24.73;;;22.10;;
8042;SDS011;4064;48.132;11.366;2023-03-02T10:04:51;25.20;;;21.20;;
8042;SDS011;4064;48.132;11.366;2023-03-02T10:07:21;24.67;;;20.23;;
8042;SDS011;4064;48.132;11.366;2023-03-02T10:10:20;22.33;;;20.13;;
8042;SDS011;4064;48.132;11.366;2023-03-02T10:15:40;22.07;;;19.77;;
8042;SDS011;4064;48.132;11.366;2023-03-02T10:18:29;25.10;;;19.60;;
8042;SDS011;4064;48.132;11.366;2023-03-02T10:21:12;22.60;;;19.73;;
8042;SDS011;4064;48.132;11.366;2023-03-02T10:24:04;24.87;;;21.10;;
8042;SDS011;4064;48.132;11.366;2023-03-02T10:26:45;22.10;;;19.70;;
8042;SDS011;4064;48.132;11.366;2023-03-02T10:29:32;23.80;;;19.77;;
8042;SDS011;4064;48.132;11.366;2023-03-02T10:34:47;27.97;;;20.63;;
8042;SDS011;4064;48.132;11.366;2023-03-02T10:37:15;23.37;;;19.70;;
8042;SDS011;4064;48.132;11.366;2023-03-02T10:39:49;23.03;;;20.20;;
8042;SDS011;4064;48.132;11.366;2023-03-02T10:42:17;22.60;;;20.03;;
8042;SDS011;4064;48.132;11.366;2023-03-02T10:45:20;21.33;;;19.13;;
8042;SDS011;4064;48.132;11.366;2023-03-02T10:47:42;23.80;;;19.80;;
8042;SDS011;4064;48.132;11.366;2023-03-02T10:50:19;23.20;;;20.80;;
8042;SDS011;4064;48.132;11.366;2023-03-02T10:52:49;21.93;;;19.23;;
8042;SDS011;4064;48.132;11.366;2023-03-02T10:55:15;23.40;;;19.70;;
8042;SDS011;4064;48.132;11.366;2023-03-02T10:57:42;21.43;;;19.13;;
8042;SDS011;4064;48.132;11.366;2023-03-02T11:02:49;24.70;;;20.63;;
8042;SDS011;4064;48.132;11.366;2023-03-02T11:05:30;23.23;;;18.90;;
8042;SDS011;4064;48.132;11.366;2023-03-02T11:08:10;23.77;;;20.33;;
8042;SDS011;4064;48.132;11.366;2023-03-02T11:10:58;27.63;;;20.00;;
8042;SDS011;4064;48.132;11.366;2023-03-02T11:13:33;25.07;;;20.20;;
8042;SDS011;4064;48.132;11.366;2023-03-02T11:16:02;22.60;;;20.17;;
8042;SDS011;4064;48.132;11.366;2023-03-02T11:21:23;23.73;;;19.60;;
8042;SDS011;4064;48.132;11.366;2023-03-02T11:26:38;22.50;;;20.00;;
8042;SDS011;4064;48.132;11.366;2023-03-02T11:31:41;23.00;;;17.90;;
8042;SDS011;4064;48.132;11.366;2023-03-02T11:42:21;26.40;;;18.80;;
8042;SDS011;4064;48.132;11.366;2023-03-02T11:45:13;25.17;;;19.57;;
8042;SDS011;4064;48.132;11.366;2023-03-02T11:47:55;26.83;;;17.43;;
8042;SDS011;4064;48.132;11.366;2023-03-02T11:50:33;27.53;;;20.03;;
8042;SDS011;4064;48.132;11.366;2023-03-02T11:53:11;24.73;;;19.33;;
8042;SDS011;4064;48.132;11.366;2023-03-02T11:55:44;27.93;;;19.60;;
8042;SDS011;4064;48.132;11.366;2023-03-02T11:58:25;23.17;;;18.47;;
8042;SDS011;4064;48.132;11.366;2023-03-02T12:00:53;21.67;;;18.97;;
8042;SDS011;4064;48.132;11.366;2023-03-02T12:10:56;26.57;;;20.57;;
8042;SDS011;4064;48.132;11.366;2023-03-02T12:13:58;20.23;;;18.00;;
8042;SDS011;4064;48.132;11.366;2023-03-02T12:19:11;22.00;;;19.07;;
8042;SDS011;4064;48.132;11.366;2023-03-02T12:21:41;19.63;;;17.03;;
8042;SDS011;4064;48.132;11.366;2023-03-02T12:24:30;24.13;;;17.93;;
8042;SDS011;4064;48.132;11.366;2023-03-02T12:30:24;29.13;;;19.13;;
8042;SDS011;4064;48.132;11.366;2023-03-02T12:32:57;23.03;;;17.67;;
8042;SDS011;4064;48.132;11.366;2023-03-02T12:35:34;20.00;;;17.50;;
8042;SDS011;4064;48.132;11.366;2023-03-02T12:38:05;20.90;;;17.63;;
8042;SDS011;4064;48.132;11.366;2023-03-02T12:46:29;21.57;;;16.13;;
8042;SDS011;4064;48.132;11.366;2023-03-02T12:49:13;19.77;;;17.23;;
8042;SDS011;4064;48.132;11.366;2023-03-02T12:51:50;19.43;;;16.50;;
8042;SDS011;4064;48.132;11.366;2023-03-02T12:54:21;18.30;;;14.77;;
8042;SDS011;4064;48.132;11.366;2023-03-02T12:56:49;24.43;;;16.30;;
8042;SDS011;4064;48.132;11.366;2023-03-02T12:59:26;23.17;;;18.80;;
8042;SDS011;4064;48.132;11.366;2023-03-02T13:02:02;24.70;;;19.37;;
8042;SDS011;4064;48.132;11.366;2023-03-02T13:04:30;28.10;;;19.37;;
8042;SDS011;4064;48.132;11.366;2023-03-02T13:06:55;26.00;;;18.00;;
8042;SDS011;4064;48.132;11.366;2023-03-02T13:09:21;28.60;;;21.67;;
8042;SDS011;4064;48.132;11.366;2023-03-02T13:11:47;29.20;;;22.40;;
8042;SDS011;4064;48.132;11.366;2023-03-02T13:14:19;34.40;;;25.43;;
8042;SDS011;4064;48.132;11.366;2023-03-02T13:16:53;39.90;;;25.87;;
8042;SDS011;4064;48.132;11.366;2023-03-02T13:19:20;30.77;;;24.00;;
8042;SDS011;4064;48.132;11.366;2023-03-02T13:21:47;30.90;;;23.00;;
8042;SDS011;4064;48.132;11.366;2023-03-02T13:24:48;34.00;;;22.70;;
8042;SDS011;4064;48.132;11.366;2023-03-02T13:27:27;31.90;;;23.90;;
8042;SDS011;4064;48.132;11.366;2023-03-02T13:29:54;29.67;;;23.53;;
8042;SDS011;4064;48.132;11.366;2023-03-02T13:32:35;31.10;;;22.57;;
8042;SDS011;4064;48.132;11.366;2023-03-02T13:35:13;29.70;;;21.10;;
8042;SDS011;4064;48.132;11.366;2023-03-02T13:37:53;34.77;;;25.57;;
8042;SDS011;4064;48.132;11.366;2023-03-02T13:40:44;30.30;;;23.83;;
8042;SDS011;4064;48.132;11.366;2023-03-02T13:48:36;32.53;;;23.20;;
8042;SDS011;4064;48.132;11.366;2023-03-02T13:51:03;30.93;;;23.30;;
8042;SDS011;4064;48.132;11.366;2023-03-02T13:53:44;33.37;;;24.40;;
8042;SDS011;4064;48.132;11.366;2023-03-02T13:56:19;30.47;;;23.00;;
8042;SDS011;4064;48.132;11.366;2023-03-02T13:58:56;30.43;;;23.47;;
8042;SDS011;4064;48.132;11.366;2023-03-02T14:01:21;32.37;;;24.33;;
8042;SDS011;4064;48.132;11.366;2023-03-02T14:03:47;31.50;;;25.30;;
8042;SDS011;4064;48.132;11.366;2023-03-02T14:06:13;30.77;;;23.70;;
8042;SDS011;4064;48.132;11.366;2023-03-02T14:08:39;34.00;;;24.83;;
8042;SDS011;4064;48.132;11.366;2023-03-02T14:11:04;29.50;;;23.13;;
8042;SDS011;4064;48.132;11.366;2023-03-02T14:13:39;38.73;;;25.20;;
8042;SDS011;4064;48.132;11.366;2023-03-02T14:16:09;32.93;;;24.60;;
8042;SDS011;4064;48.132;11.366;2023-03-02T14:21:17;32.30;;;23.60;;
8042;SDS011;4064;48.132;11.366;2023-03-02T14:23:47;30.97;;;24.23;;
8042;SDS011;4064;48.132;11.366;2023-03-02T14:31:38;27.77;;;22.70;;
8042;SDS011;4064;48.132;11.366;2023-03-02T14:34:03;36.77;;;25.07;;
8042;SDS011;4064;48.132;11.366;2023-03-02T14:36:32;34.23;;;22.60;;
8042;SDS011;4064;48.132;11.366;2023-03-02T14:38:59;38.50;;;25.37;;
8042;SDS011;4064;48.132;11.366;2023-03-02T14:41:27;32.87;;;24.57;;
8042;SDS011;4064;48.132;11.366;2023-03-02T14:43:54;35.67;;;25.73;;
8042;SDS011;4064;48.132;11.366;2023-03-02T14:46:20;30.90;;;22.80;;
8042;SDS011;4064;48.132;11.366;2023-03-02T14:48:46;33.07;;;23.73;;
8042;SDS011;4064;48.132;11.366;2023-03-02T14:51:23;34.17;;;24.67;;
8042;SDS011;4064;48.132;11.366;2023-03-02T14:53:53;32.07;;;24.53;;
8042;SDS011;4064;48.132;11.366;2023-03-02T14:56:20;31.53;;;23.70;;
8042;SDS011;4064;48.132;11.366;2023-03-02T14:58:47;32.87;;;25.07;;
8042;SDS011;4064;48.132;11.366;2023-03-02T15:01:17;28.93;;;23.17;;
8042;SDS011;4064;48.132;11.366;2023-03-02T15:03:44;30.17;;;24.00;;
8042;SDS011;4064;48.132;11.366;2023-03-02T15:06:22;30.33;;;23.87;;
8042;SDS011;4064;48.132;11.366;2023-03-02T15:08:51;35.10;;;24.30;;
8042;SDS011;4064;48.132;11.366;2023-03-02T15:11:17;35.20;;;25.70;;
8042;SDS011;4064;48.132;11.366;2023-03-02T15:13:43;32.00;;;24.50;;
8042;SDS011;4064;48.132;11.366;2023-03-02T15:16:09;34.00;;;26.10;;
8042;SDS011;4064;48.132;11.366;2023-03-02T15:18:38;30.93;;;23.00;;
8042;SDS011;4064;48.132;11.366;2023-03-02T15:21:04;29.80;;;22.73;;
8042;SDS011;4064;48.132;11.366;2023-03-02T15:23:30;34.93;;;26.27;;
8042;SDS011;4064;48.132;11.366;2023-03-02T15:25:59;38.47;;;27.63;;
8042;SDS011;4064;48.132;11.366;2023-03-02T15:28:26;32.23;;;23.77;;
8042;SDS011;4064;48.132;11.366;2023-03-02T15:30:52;33.97;;;24.33;;
8042;SDS011;4064;48.132;11.366;2023-03-02T15:33:19;37.37;;;25.33;;
8042;SDS011;4064;48.132;11.366;2023-03-02T15:35:49;39.60;;;26.10;;
8042;SDS011;4064;48.132;11.366;2023-03-02T15:38:17;38.93;;;26.57;;
8042;SDS011;4064;48.132;11.366;2023-03-02T15:40:43;36.83;;;24.80;;
8042;SDS011;4064;48.132;11.366;2023-03-02T15:43:09;38.80;;;25.40;;
8042;SDS011;4064;48.132;11.366;2023-03-02T15:45:35;40.30;;;25.70;;
8042;SDS011;4064;48.132;11.366;2023-03-02T15:48:00;39.43;;;26.70;;
8042;SDS011;4064;48.132;11.366;2023-03-02T15:50:27;42.13;;;26.43;;
8042;SDS011;4064;48.132;11.366;2023-03-02T15:52:52;37.60;;;25.07;;
8042;SDS011;4064;48.132;11.366;2023-03-02T15:55:20;43.63;;;29.33;;
8042;SDS011;4064;48.132;11.366;2023-03-02T15:57:45;41.00;;;26.60;;
8042;SDS011;4064;48.132;11.366;2023-03-02T16:00:11;38.87;;;24.17;;
8042;SDS011;4064;48.132;11.366;2023-03-02T16:02:38;48.77;;;27.87;;
8042;SDS011;4064;48.132;11.366;2023-03-02T16:05:04;38.47;;;26.43;;
8042;SDS011;4064;48.132;11.366;2023-03-02T16:07:30;44.55;;;29.92;;
8042;SDS011;4064;48.132;11.366;2023-03-02T16:09:56;43.97;;;28.30;;
8042;SDS011;4064;48.132;11.366;2023-03-02T16:12:25;38.30;;;26.33;;